createdAt,value
2018-10-06T00:00:12.496Z,98098.28
2018-10-06T00:02:39.769Z,98089.98
2018-10-06T00:05:06.217Z,98085.79
2018-10-06T00:07:32.758Z,98081.16
2018-10-06T00:09:59.271Z,98072.04
2018-10-06T00:12:25.721Z,98064.55
2018-10-06T00:14:52.312Z,98061.50
2018-10-06T00:17:18.883Z,98055.44
2018-10-06T00:19:45.379Z,98051.33
2018-10-06T00:22:11.961Z,98057.11
2018-10-06T00:24:39.738Z,98058.78
2018-10-06T00:27:06.264Z,98048.23
2018-10-06T00:29:32.819Z,98054.81
2018-10-06T00:31:59.575Z,98045.05
2018-10-06T00:34:27.524Z,98040.76
2018-10-06T00:39:27.492Z,98029.83
2018-10-06T00:41:55.537Z,98029.70
2018-10-06T00:44:23.426Z,98028.20
2018-10-06T00:46:51.291Z,98028.11
2018-10-06T00:49:18.536Z,98020.72
2018-10-06T00:51:46.268Z,98025.41
2018-10-06T00:54:14.383Z,98016.09
2018-10-06T00:56:42.904Z,98010.11
2018-10-06T00:59:11.345Z,98014.14
2018-10-06T01:01:42.562Z,98010.60
2018-10-06T01:04:10.904Z,98010.58
2018-10-06T01:06:38.354Z,98007.95
2018-10-06T01:09:04.894Z,98008.80
2018-10-06T01:11:32.305Z,98009.11
2018-10-06T01:14:00.205Z,98003.84
2018-10-06T01:16:29.469Z,97993.30
2018-10-06T01:18:58.074Z,97996.55
2018-10-06T01:21:26.349Z,97992.27
2018-10-06T01:23:53.109Z,97994.27
2018-10-06T01:26:20.320Z,97989.75
2018-10-06T01:28:48.579Z,97988.41
2018-10-06T01:31:15.996Z,97989.55
2018-10-06T01:33:44.100Z,97995.02
2018-10-06T01:36:11.731Z,97993.39
2018-10-06T01:38:38.262Z,97994.16
2018-10-06T01:41:05.259Z,97983.05
2018-10-06T01:43:32.951Z,97980.81
2018-10-06T01:46:01.358Z,97985.38
2018-10-06T01:48:28.174Z,97986.88
2018-10-06T01:50:56.405Z,97971.64
2018-10-06T01:53:24.123Z,97963.84
2018-10-06T01:55:50.625Z,97964.97
2018-10-06T01:58:18.815Z,97952.52
2018-10-06T02:00:46.289Z,97948.42
2018-10-06T02:05:46.546Z,97950.02
2018-10-06T02:08:13.872Z,97950.68
2018-10-06T02:10:42.264Z,97942.13
2018-10-06T02:13:11.460Z,97950.41
2018-10-06T02:15:39.601Z,97942.44
2018-10-06T02:18:07.505Z,97938.69
2018-10-06T02:20:35.778Z,97938.72
2018-10-06T02:23:03.762Z,97940.31
2018-10-06T02:25:30.696Z,97944.37
2018-10-06T02:27:57.675Z,97939.70
2018-10-06T02:30:28.745Z,97933.95
2018-10-06T02:32:56.285Z,97940.59
2018-10-06T02:35:24.208Z,97929.33
2018-10-06T02:37:52.122Z,97930.91
2018-10-06T02:40:18.846Z,97935.63
2018-10-06T02:42:47.825Z,97934.61
2018-10-06T02:45:16.389Z,97929.27
2018-10-06T02:47:44.186Z,97927.70
2018-10-06T02:50:12.745Z,97924.81
2018-10-06T02:52:40.569Z,97917.12
2018-10-06T02:55:08.192Z,97922.42
2018-10-06T02:57:36.395Z,97919.59
2018-10-06T03:00:02.894Z,97916.73
2018-10-06T03:02:32.682Z,97911.03
2018-10-06T03:04:59.956Z,97901.11
2018-10-06T03:07:27.013Z,97903.02
2018-10-06T03:09:54.497Z,97903.90
2018-10-06T03:12:21.682Z,97902.27
2018-10-06T03:14:51.239Z,97899.83
2018-10-06T03:17:18.557Z,97892.85
2018-10-06T03:19:45.681Z,97887.47
2018-10-06T03:22:14.065Z,97884.28
2018-10-06T03:24:40.580Z,97887.70
2018-10-06T03:27:07.137Z,97886.57
2018-10-06T03:29:33.686Z,97886.75
2018-10-06T03:32:00.378Z,97879.56
2018-10-06T03:34:26.875Z,97879.84
2018-10-06T03:36:53.571Z,97878.50
2018-10-06T03:39:20.047Z,97876.50
2018-10-06T03:41:46.698Z,97869.84
2018-10-06T03:44:14.097Z,97869.77
2018-10-06T03:46:40.576Z,97872.63
2018-10-06T03:49:07.035Z,97870.27
2018-10-06T03:51:33.542Z,97864.11
2018-10-06T03:54:00.545Z,97859.64
2018-10-06T03:56:27.229Z,97858.61
2018-10-06T03:58:53.840Z,97852.34
2018-10-06T04:01:20.335Z,97852.48
2018-10-06T04:03:46.823Z,97849.30
2018-10-06T04:06:14.440Z,97850.44
2018-10-06T04:08:40.913Z,97839.28
2018-10-06T04:11:07.453Z,97840.94
2018-10-06T04:13:33.998Z,97830.94
2018-10-06T04:16:00.481Z,97839.91
2018-10-06T04:18:27.140Z,97841.30
2018-10-06T04:23:25.824Z,97846.63
2018-10-06T04:25:52.355Z,97849.36
2018-10-06T04:28:18.979Z,97842.56
2018-10-06T04:30:45.664Z,97849.06
2018-10-06T04:33:12.389Z,97850.06
2018-10-06T04:35:38.953Z,97848.94
2018-10-06T04:38:05.541Z,97856.36
2018-10-06T04:40:32.013Z,97856.11
2018-10-06T04:42:58.580Z,97863.59
2018-10-06T04:45:28.146Z,97855.78
2018-10-06T04:47:54.673Z,97862.23
2018-10-06T04:50:21.603Z,97861.70
2018-10-06T04:52:48.312Z,97856.25
2018-10-06T04:55:15.405Z,97852.45
2018-10-06T04:57:41.953Z,97854.39
2018-10-06T05:00:08.431Z,97856.25
2018-10-06T05:02:34.909Z,97848.94
2018-10-06T05:05:01.390Z,97854.05
2018-10-06T05:07:27.904Z,97859.77
2018-10-06T05:09:54.506Z,97854.35
2018-10-06T05:12:20.959Z,97851.95
2018-10-06T05:14:47.605Z,97852.61
2018-10-06T05:17:14.145Z,97857.83
2018-10-06T05:19:40.656Z,97859.80
2018-10-06T05:22:07.172Z,97854.42
2018-10-06T05:24:33.672Z,97849.17
2018-10-06T05:27:00.218Z,97846.66
2018-10-06T05:29:26.722Z,97839.85
2018-10-06T05:31:53.187Z,97849.14
2018-10-06T05:34:19.826Z,97837.28
2018-10-06T05:36:46.421Z,97839.06
2018-10-06T05:39:13.093Z,97837.63
2018-10-06T05:41:39.601Z,97832.87
2018-10-06T05:44:06.061Z,97831.34
2018-10-06T05:46:32.562Z,97833.69
2018-10-06T05:48:59.245Z,97840.12
2018-10-06T05:51:25.845Z,97840.28
2018-10-06T05:53:52.555Z,97838.78
2018-10-06T05:56:19.932Z,97839.81
2018-10-06T05:58:46.448Z,97845.00
2018-10-06T06:01:13.017Z,97843.77
2018-10-06T06:03:39.463Z,97843.36
2018-10-06T06:06:05.961Z,97844.63
2018-10-06T06:08:32.428Z,97844.81
2018-10-06T06:10:59.002Z,97850.38
2018-10-06T06:13:25.676Z,97845.02
2018-10-06T06:15:52.409Z,97845.50
2018-10-06T06:18:18.898Z,97850.62
2018-10-06T06:20:45.601Z,97848.25
2018-10-06T06:23:12.406Z,97847.67
2018-10-06T06:25:38.891Z,97846.34
2018-10-06T06:28:05.532Z,97844.53
2018-10-06T06:30:31.998Z,97840.12
2018-10-06T06:32:58.465Z,97838.42
2018-10-06T06:35:25.147Z,97841.14
2018-10-06T06:37:51.673Z,97842.86
2018-10-06T06:40:18.164Z,97847.56
2018-10-06T06:42:44.813Z,97854.96
2018-10-06T06:45:11.298Z,97847.91
2018-10-06T06:47:37.964Z,97852.26
2018-10-06T06:50:04.530Z,97850.14
2018-10-06T06:52:31.181Z,97844.77
2018-10-06T06:54:57.735Z,97837.13
2018-10-06T06:57:24.382Z,97842.90
2018-10-06T06:59:51.881Z,97842.19
2018-10-06T07:02:18.362Z,97849.48
2018-10-06T07:04:44.946Z,97840.49
2018-10-06T07:07:11.484Z,97835.34
2018-10-06T07:09:37.967Z,97839.41
2018-10-06T07:14:36.704Z,97841.53
2018-10-06T07:17:03.218Z,97843.69
2018-10-06T07:19:29.843Z,97834.42
2018-10-06T07:21:56.390Z,97834.28
2018-10-06T07:24:22.910Z,97833.45
2018-10-06T07:26:49.537Z,97843.84
2018-10-06T07:29:16.040Z,97839.70
2018-10-06T07:31:42.504Z,97840.13
2018-10-06T07:34:09.064Z,97835.95
2018-10-06T07:36:36.072Z,97831.80
2018-10-06T07:39:02.541Z,97834.63
2018-10-06T07:41:29.106Z,97831.98
2018-10-06T07:43:55.603Z,97833.53
2018-10-06T07:46:22.140Z,97833.70
2018-10-06T07:48:48.658Z,97829.44
2018-10-06T07:51:15.152Z,97833.89
2018-10-06T07:56:13.291Z,97837.39
2018-10-06T07:58:39.898Z,97831.31
2018-10-06T08:01:06.375Z,97828.70
2018-10-06T08:03:33.012Z,97829.34
2018-10-06T08:05:59.569Z,97826.72
2018-10-06T08:08:26.135Z,97824.60
2018-10-06T08:10:52.625Z,97826.98
2018-10-06T08:13:19.235Z,97825.10
2018-10-06T08:15:45.688Z,97826.45
2018-10-06T08:18:12.208Z,97820.87
2018-10-06T08:20:38.758Z,97819.09
2018-10-06T08:23:05.195Z,97822.44
2018-10-06T08:25:31.713Z,97815.11
2018-10-06T08:27:58.198Z,97819.66
2018-10-06T08:30:25.614Z,97811.23
2018-10-06T08:32:52.122Z,97814.48
2018-10-06T08:35:22.351Z,97808.86
2018-10-06T08:37:48.914Z,97805.55
2018-10-06T08:40:15.547Z,97803.50
2018-10-06T08:42:42.151Z,97787.08
2018-10-06T08:45:08.846Z,97795.77
2018-10-06T08:47:35.529Z,97791.42
2018-10-06T08:50:02.274Z,97793.39
2018-10-06T08:52:28.865Z,97795.25
2018-10-06T08:54:55.355Z,97795.60
2018-10-06T08:59:53.799Z,97793.00
2018-10-06T09:02:20.343Z,97791.94
2018-10-06T09:04:46.830Z,97791.95
2018-10-06T09:07:13.358Z,97793.88
2018-10-06T09:09:40.032Z,97786.58
2018-10-06T09:12:06.545Z,97784.70
2018-10-06T09:14:33.076Z,97782.22
2018-10-06T09:16:59.630Z,97788.02
2018-10-06T09:19:26.137Z,97786.38
2018-10-06T09:21:52.672Z,97785.01
2018-10-06T09:24:19.230Z,97784.90
2018-10-06T09:26:46.807Z,97775.33
2018-10-06T09:29:13.512Z,97765.94
2018-10-06T09:31:40.138Z,97772.12
2018-10-06T09:34:06.636Z,97772.00
2018-10-06T09:36:33.206Z,97763.39
2018-10-06T09:38:59.750Z,97766.23
2018-10-06T09:41:26.305Z,97757.23
2018-10-06T09:43:52.879Z,97744.34
2018-10-06T09:46:19.727Z,97743.63
2018-10-06T09:48:46.242Z,97754.38
2018-10-06T09:51:12.772Z,97744.48
2018-10-06T09:53:39.395Z,97736.95
2018-10-06T09:56:06.505Z,97732.47
2018-10-06T09:58:33.076Z,97731.61
2018-10-06T10:00:59.793Z,97726.12
2018-10-06T10:03:26.378Z,97719.03
2018-10-06T10:05:53.011Z,97718.32
2018-10-06T10:08:19.753Z,97711.84
2018-10-06T10:10:46.262Z,97712.38
2018-10-06T10:13:12.791Z,97708.80
2018-10-06T10:15:39.293Z,97707.59
2018-10-06T10:18:06.889Z,97702.81
2018-10-06T10:20:33.579Z,97699.50
2018-10-06T10:23:00.274Z,97698.45
2018-10-06T10:25:28.372Z,97700.05
2018-10-06T10:27:55.107Z,97697.59
2018-10-06T10:30:21.607Z,97694.14
2018-10-06T10:32:48.136Z,97695.20
2018-10-06T10:35:14.701Z,97691.08
2018-10-06T10:37:41.325Z,97687.03
2018-10-06T10:40:07.765Z,97681.45
2018-10-06T10:42:34.279Z,97678.11
2018-10-06T10:45:00.752Z,97673.56
2018-10-06T10:47:27.688Z,97674.95
2018-10-06T10:49:54.256Z,97677.64
2018-10-06T10:52:20.721Z,97666.89
2018-10-06T10:54:47.266Z,97664.86
2018-10-06T10:57:13.813Z,97661.44
2018-10-06T10:59:40.533Z,97664.53
2018-10-06T11:02:07.531Z,97661.62
2018-10-06T11:04:34.395Z,97655.69
2018-10-06T11:07:01.121Z,97643.14
2018-10-06T11:09:27.636Z,97636.53
2018-10-06T11:11:54.236Z,97637.87
2018-10-06T11:14:20.733Z,97630.33
2018-10-06T11:16:47.220Z,97622.48
2018-10-06T11:19:14.731Z,97621.56
2018-10-06T11:21:41.231Z,97610.46
2018-10-06T11:24:07.995Z,97605.91
2018-10-06T11:26:34.546Z,97599.64
2018-10-06T11:29:01.200Z,97598.09
2018-10-06T11:31:27.646Z,97590.82
2018-10-06T11:36:26.577Z,97577.67
2018-10-06T11:38:53.182Z,97570.52
2018-10-06T11:41:19.646Z,97577.52
2018-10-06T11:43:46.607Z,97572.81
2018-10-06T11:46:13.246Z,97565.27
2018-10-06T11:48:39.801Z,97567.41
2018-10-06T11:51:06.364Z,97553.52
2018-10-06T11:53:32.838Z,97551.59
2018-10-06T11:55:59.326Z,97545.71
2018-10-06T11:58:25.859Z,97541.95
2018-10-06T12:00:52.317Z,97540.34
2018-10-06T12:03:19.060Z,97536.56
2018-10-06T12:05:45.600Z,97532.00
2018-10-06T12:08:12.335Z,97537.31
2018-10-06T12:10:38.868Z,97534.30
2018-10-06T12:13:05.722Z,97527.71
2018-10-06T12:15:32.399Z,97526.83
2018-10-06T12:17:58.964Z,97524.94
2018-10-06T12:20:25.719Z,97523.23
2018-10-06T12:22:53.293Z,97519.78
2018-10-06T12:25:20.649Z,97520.73
2018-10-06T12:27:47.234Z,97509.52
2018-10-06T12:30:13.831Z,97506.06
2018-10-06T12:32:40.386Z,97501.58
2018-10-06T12:35:07.120Z,97493.75
2018-10-06T12:37:33.843Z,97493.87
2018-10-06T12:40:00.366Z,97488.82
2018-10-06T12:42:26.911Z,97486.23
2018-10-06T12:44:53.407Z,97482.61
2018-10-06T12:47:19.937Z,97480.03
2018-10-06T12:49:46.470Z,97472.13
2018-10-06T12:52:13.001Z,97470.63
2018-10-06T12:54:39.705Z,97475.79
2018-10-06T12:57:06.270Z,97465.61
2018-10-06T12:59:32.837Z,97464.93
2018-10-06T13:01:59.323Z,97464.38
2018-10-06T13:04:25.862Z,97463.63
2018-10-06T13:06:52.464Z,97459.29
2018-10-06T13:09:19.061Z,97452.38
2018-10-06T13:11:45.629Z,97454.61
2018-10-06T13:14:12.486Z,97449.69
2018-10-06T13:16:39.127Z,97445.28
2018-10-06T13:19:05.864Z,97445.00
2018-10-06T13:21:32.388Z,97439.58
2018-10-06T13:23:59.729Z,97432.22
2018-10-06T13:26:27.199Z,97430.86
2018-10-06T13:28:53.911Z,97416.34
2018-10-06T13:31:20.457Z,97420.92
2018-10-06T13:33:46.978Z,97413.97
2018-10-06T13:36:13.475Z,97406.14
2018-10-06T13:38:40.000Z,97411.90
2018-10-06T13:43:38.498Z,97404.06
2018-10-06T13:46:05.125Z,97408.14
2018-10-06T13:48:31.796Z,97397.02
2018-10-06T13:50:58.565Z,97392.33
2018-10-06T13:53:25.584Z,97390.20
2018-10-06T13:55:52.215Z,97389.22
2018-10-06T13:58:19.802Z,97384.42
2018-10-06T14:00:46.289Z,97386.83
2018-10-06T14:03:12.986Z,97384.17
2018-10-06T14:05:40.430Z,97384.80
2018-10-06T14:08:06.942Z,97385.70
2018-10-06T14:10:33.706Z,97380.77
2018-10-06T14:13:00.312Z,97380.59
2018-10-06T14:15:26.826Z,97379.00
2018-10-06T14:17:53.390Z,97379.13
2018-10-06T14:20:20.180Z,97382.02
2018-10-06T14:22:46.716Z,97373.74
2018-10-06T14:25:13.293Z,97376.83
2018-10-06T14:27:39.864Z,97368.91
2018-10-06T14:30:06.418Z,97369.69
2018-10-06T14:32:33.078Z,97372.70
2018-10-06T14:34:59.784Z,97366.42
2018-10-06T14:37:26.316Z,97360.45
2018-10-06T14:39:52.874Z,97361.36
2018-10-06T14:42:19.475Z,97354.32
2018-10-06T14:44:46.613Z,97354.97
2018-10-06T14:47:13.257Z,97360.16
2018-10-06T14:49:39.836Z,97349.27
2018-10-06T14:52:06.420Z,97345.50
2018-10-06T14:54:32.949Z,97347.34
2018-10-06T14:56:59.698Z,97343.36
2018-10-06T14:59:26.299Z,97352.83
2018-10-06T15:01:52.970Z,97341.91
2018-10-06T15:04:19.637Z,97340.34
2018-10-06T15:06:46.086Z,97342.03
2018-10-06T15:09:12.621Z,97342.77
2018-10-06T15:11:39.143Z,97347.87
2018-10-06T15:14:05.683Z,97339.34
2018-10-06T15:16:32.340Z,97338.97
2018-10-06T15:18:58.873Z,97331.41
2018-10-06T15:21:25.608Z,97328.48
2018-10-06T15:23:52.455Z,97329.11
2018-10-06T15:26:19.949Z,97328.95
2018-10-06T15:28:47.337Z,97331.10
2018-10-06T15:31:15.212Z,97332.70
2018-10-06T15:33:41.832Z,97324.70
2018-10-06T15:36:08.341Z,97327.97
2018-10-06T15:38:35.309Z,97327.75
2018-10-06T15:41:01.907Z,97322.64
2018-10-06T15:43:28.473Z,97325.63
2018-10-06T15:45:55.100Z,97322.39
2018-10-06T15:48:21.772Z,97323.18
2018-10-06T15:50:48.313Z,97319.44
2018-10-06T15:53:14.924Z,97319.94
2018-10-06T15:55:41.482Z,97322.62
2018-10-06T15:58:07.989Z,97314.81
2018-10-06T16:00:34.508Z,97326.26
2018-10-06T16:03:01.062Z,97332.61
2018-10-06T16:05:27.701Z,97330.07
2018-10-06T16:07:55.151Z,97326.84
2018-10-06T16:10:21.701Z,97326.09
2018-10-06T16:12:48.183Z,97326.35
2018-10-06T16:15:14.787Z,97330.05
2018-10-06T16:17:41.961Z,97323.31
2018-10-06T16:20:08.469Z,97320.75
2018-10-06T16:22:35.639Z,97319.91
2018-10-06T16:25:02.443Z,97320.78
2018-10-06T16:27:28.961Z,97320.08
2018-10-06T16:29:55.751Z,97320.47
2018-10-06T16:32:22.378Z,97326.58
2018-10-06T16:34:48.940Z,97333.77
2018-10-06T16:37:15.709Z,97336.30
2018-10-06T16:39:42.285Z,97335.28
2018-10-06T16:42:08.911Z,97337.48
2018-10-06T16:44:35.669Z,97337.73
2018-10-06T16:47:02.147Z,97343.08
2018-10-06T16:49:28.634Z,97344.64
2018-10-06T16:51:56.640Z,97336.96
2018-10-06T16:54:23.338Z,97340.66
2018-10-06T16:56:50.436Z,97336.94
2018-10-06T16:59:17.051Z,97345.52
2018-10-06T17:01:43.594Z,97339.49
2018-10-06T17:04:10.281Z,97340.78
2018-10-06T17:06:36.815Z,97340.84
2018-10-06T17:09:03.309Z,97337.39
2018-10-06T17:11:29.768Z,97348.03
2018-10-06T17:13:56.288Z,97342.88
2018-10-06T17:16:22.769Z,97347.84
2018-10-06T17:18:49.298Z,97349.22
2018-10-06T17:21:15.820Z,97353.22
2018-10-06T17:23:42.283Z,97350.66
2018-10-06T17:26:08.788Z,97348.66
2018-10-06T17:28:35.320Z,97352.20
2018-10-06T17:31:01.806Z,97352.95
2018-10-06T17:33:29.334Z,97351.77
2018-10-06T17:35:57.150Z,97347.84
2018-10-06T17:38:23.632Z,97350.32
2018-10-06T17:40:50.148Z,97344.83
2018-10-06T17:43:16.686Z,97348.15
2018-10-06T17:45:43.174Z,97340.67
2018-10-06T17:48:09.670Z,97347.52
2018-10-06T17:50:37.273Z,97346.37
2018-10-06T17:53:03.888Z,97345.43
2018-10-06T17:55:30.667Z,97344.44
2018-10-06T17:57:57.274Z,97338.86
2018-10-06T18:00:23.813Z,97339.70
2018-10-06T18:02:50.349Z,97341.28
2018-10-06T18:05:17.499Z,97340.55
2018-10-06T18:07:44.076Z,97339.52
2018-10-06T18:10:10.643Z,97343.20
2018-10-06T18:12:37.178Z,97347.92
2018-10-06T18:15:04.550Z,97339.95
2018-10-06T18:17:31.610Z,97343.45
2018-10-06T18:19:58.179Z,97339.50
2018-10-06T18:22:24.855Z,97335.11
2018-10-06T18:24:51.393Z,97335.27
2018-10-06T18:27:18.051Z,97339.42
2018-10-06T18:29:44.731Z,97344.38
2018-10-06T18:32:11.349Z,97348.91
2018-10-06T18:34:38.506Z,97347.66
2018-10-06T18:37:05.099Z,97354.20
2018-10-06T18:39:32.162Z,97348.15
2018-10-06T18:41:58.763Z,97350.70
2018-10-06T18:44:25.319Z,97349.72
2018-10-06T18:46:51.835Z,97354.96
2018-10-06T18:51:50.110Z,97355.87
2018-10-06T18:54:16.567Z,97359.16
2018-10-06T18:56:43.324Z,97363.11
2018-10-06T19:04:13.888Z,97367.12
2018-10-06T19:06:40.836Z,97371.43
2018-10-06T19:09:07.297Z,97365.21
2018-10-06T19:11:33.874Z,97370.81
2018-10-06T19:14:00.405Z,97365.11
2018-10-06T19:16:26.947Z,97365.08
2018-10-06T19:18:53.574Z,97360.00
2018-10-06T19:21:20.012Z,97359.17
2018-10-06T19:23:46.466Z,97363.95
2018-10-06T19:26:12.963Z,97352.38
2018-10-06T19:28:39.571Z,97352.98
2018-10-06T19:31:06.040Z,97357.79
2018-10-06T19:33:33.423Z,97353.79
2018-10-06T19:35:59.911Z,97345.93
2018-10-06T19:38:26.410Z,97354.38
2018-10-06T19:40:52.907Z,97349.56
2018-10-06T19:43:19.447Z,97346.68
2018-10-06T19:45:46.002Z,97347.00
2018-10-06T19:48:13.389Z,97347.84
2018-10-06T19:50:39.957Z,97354.77
2018-10-06T19:53:07.120Z,97356.90
2018-10-06T19:55:33.708Z,97356.20
2018-10-06T19:58:00.189Z,97356.37
2018-10-06T20:00:26.679Z,97357.43
2018-10-06T20:02:53.201Z,97350.86
2018-10-06T20:05:19.712Z,97356.19
2018-10-06T20:07:46.172Z,97355.55
2018-10-06T20:10:12.683Z,97353.59
2018-10-06T20:12:39.206Z,97358.72
2018-10-06T20:15:05.809Z,97353.53
2018-10-06T20:17:36.269Z,97355.20
2018-10-06T20:20:02.768Z,97354.42
2018-10-06T20:22:29.269Z,97353.34
2018-10-06T20:24:55.828Z,97353.44
2018-10-06T20:27:22.363Z,97349.12
2018-10-06T20:29:48.826Z,97353.91
2018-10-06T20:32:15.416Z,97347.62
2018-10-06T20:34:41.919Z,97351.30
2018-10-06T20:37:08.408Z,97348.67
2018-10-06T20:39:34.873Z,97341.56
2018-10-06T20:42:01.453Z,97345.66
2018-10-06T20:44:27.928Z,97345.71
2018-10-06T20:46:54.769Z,97343.38
2018-10-06T20:49:21.226Z,97347.55
2018-10-06T20:51:47.715Z,97342.16
2018-10-06T20:54:14.249Z,97337.02
2018-10-06T20:56:41.378Z,97339.50
2018-10-06T20:59:07.865Z,97332.63
2018-10-06T21:01:35.362Z,97332.23
2018-10-06T21:04:02.025Z,97334.23
2018-10-06T21:06:28.813Z,97333.70
2018-10-06T21:08:55.329Z,97330.56
2018-10-06T21:11:21.776Z,97326.67
2018-10-06T21:13:48.275Z,97324.02
2018-10-06T21:16:14.773Z,97318.87
2018-10-06T21:18:41.252Z,97324.81
2018-10-06T21:21:07.741Z,97320.56
2018-10-06T21:23:35.354Z,97322.97
2018-10-06T21:26:02.336Z,97319.98
2018-10-06T21:28:28.942Z,97322.80
2018-10-06T21:30:55.744Z,97316.70
2018-10-06T21:33:22.204Z,97315.52
2018-10-06T21:35:48.727Z,97310.37
2018-10-06T21:38:15.420Z,97309.05
2018-10-06T21:40:41.859Z,97312.58
2018-10-06T21:43:08.340Z,97304.59
2018-10-06T21:45:36.120Z,97296.52
2018-10-06T21:48:02.669Z,97290.83
2018-10-06T21:50:29.494Z,97286.39
2018-10-06T21:52:55.999Z,97286.78
2018-10-06T21:55:22.618Z,97283.90
2018-10-06T21:57:49.750Z,97282.39
2018-10-06T22:00:16.239Z,97276.22
2018-10-06T22:02:42.696Z,97262.20
2018-10-06T22:05:09.166Z,97268.30
2018-10-06T22:07:36.139Z,97260.09
2018-10-06T22:10:02.590Z,97246.55
2018-10-06T22:12:29.556Z,97254.31
2018-10-06T22:14:56.077Z,97251.27
2018-10-06T22:17:22.513Z,97251.17
2018-10-06T22:19:49.148Z,97248.30
2018-10-06T22:22:15.694Z,97246.83
2018-10-06T22:24:42.156Z,97246.62
2018-10-06T22:27:08.696Z,97243.84
2018-10-06T22:29:35.252Z,97244.33
2018-10-06T22:32:03.012Z,97238.40
2018-10-06T22:34:29.812Z,97243.88
2018-10-06T22:36:56.369Z,97235.42
2018-10-06T22:39:22.845Z,97238.00
2018-10-06T22:41:49.350Z,97244.03
2018-10-06T22:44:19.025Z,97237.75
2018-10-06T22:46:45.520Z,97234.50
2018-10-06T22:49:12.250Z,97242.30
2018-10-06T22:51:39.409Z,97243.83
2018-10-06T22:54:05.932Z,97242.66
2018-10-06T22:56:32.367Z,97245.92
2018-10-06T22:58:58.849Z,97242.79
2018-10-06T23:01:25.361Z,97253.72
2018-10-06T23:03:51.992Z,97251.53
2018-10-06T23:06:18.488Z,97248.52
2018-10-06T23:08:45.239Z,97250.13
2018-10-06T23:11:11.700Z,97251.75
2018-10-06T23:13:38.255Z,97247.38
2018-10-06T23:16:04.767Z,97244.38
2018-10-06T23:18:31.312Z,97237.88
2018-10-06T23:20:57.816Z,97231.75
2018-10-06T23:23:24.275Z,97229.41
2018-10-06T23:25:50.989Z,97226.95
2018-10-06T23:28:17.457Z,97225.98
2018-10-06T23:30:44.570Z,97229.94
2018-10-06T23:33:11.024Z,97225.63
2018-10-06T23:35:37.819Z,97234.99
2018-10-06T23:38:04.677Z,97246.23
2018-10-06T23:40:31.204Z,97242.92
2018-10-06T23:42:57.674Z,97236.70
2018-10-06T23:45:24.541Z,97239.36
2018-10-06T23:47:51.030Z,97232.80
2018-10-06T23:50:17.509Z,97226.01
2018-10-06T23:52:44.012Z,97226.01
2018-10-06T23:55:11.019Z,97228.34
2018-10-06T23:57:37.503Z,97229.09
